sensor_id;sensor_type;location;lat;lon;timestamp;P1;durP1;ratioP1;P2;durP2;ratioP2
30723;SDS011;17473;52.286;20.930;2024-02-15T00:02:23;13.93;;;7.37;;
30723;SDS011;17473;52.286;20.930;2024-02-15T00:04:50;12.07;;;6.03;;
30723;SDS011;17473;52.286;20.930;2024-02-15T00:07:17;18.27;;;6.93;;
30723;SDS011;17473;52.286;20.930;2024-02-15T00:09:48;17.43;;;7.83;;
30723;SDS011;17473;52.286;20.930;2024-02-15T00:12:16;15.20;;;7.60;;
30723;SDS011;17473;52.286;20.930;2024-02-15T00:14:43;16.80;;;7.97;;
30723;SDS011;17473;52.286;20.930;2024-02-15T00:17:10;16.63;;;7.80;;
30723;SDS011;17473;52.286;20.930;2024-02-15T00:19:38;16.67;;;7.33;;
30723;SDS011;17473;52.286;20.930;2024-02-15T00:22:08;15.63;;;7.43;;
30723;SDS011;17473;52.286;20.930;2024-02-15T00:24:36;15.03;;;7.30;;
30723;SDS011;17473;52.286;20.930;2024-02-15T00:27:04;16.10;;;7.50;;
30723;SDS011;17473;52.286;20.930;2024-02-15T00:29:31;17.83;;;7.17;;
30723;SDS011;17473;52.286;20.930;2024-02-15T00:32:01;19.97;;;7.70;;
30723;SDS011;17473;52.286;20.930;2024-02-15T00:34:30;14.07;;;6.90;;
30723;SDS011;17473;52.286;20.930;2024-02-15T00:36:58;16.43;;;7.60;;
30723;SDS011;17473;52.286;20.930;2024-02-15T00:39:24;17.13;;;8.63;;
30723;SDS011;17473;52.286;20.930;2024-02-15T00:41:51;16.67;;;7.73;;
30723;SDS011;17473;52.286;20.930;2024-02-15T00:44:18;15.50;;;7.53;;
30723;SDS011;17473;52.286;20.930;2024-02-15T00:46:45;16.20;;;8.50;;
30723;SDS011;17473;52.286;20.930;2024-02-15T00:49:14;20.60;;;7.70;;
30723;SDS011;17473;52.286;20.930;2024-02-15T00:51:41;16.10;;;7.27;;
30723;SDS011;17473;52.286;20.930;2024-02-15T00:54:08;18.00;;;8.37;;
30723;SDS011;17473;52.286;20.930;2024-02-15T00:56:35;16.33;;;7.93;;
30723;SDS011;17473;52.286;20.930;2024-02-15T00:59:02;17.77;;;8.53;;
30723;SDS011;17473;52.286;20.930;2024-02-15T01:01:32;17.27;;;7.80;;
30723;SDS011;17473;52.286;20.930;2024-02-15T01:03:59;16.90;;;7.60;;
30723;SDS011;17473;52.286;20.930;2024-02-15T01:06:26;18.60;;;8.37;;
30723;SDS011;17473;52.286;20.930;2024-02-15T01:08:53;12.73;;;6.63;;
30723;SDS011;17473;52.286;20.930;2024-02-15T01:11:20;17.63;;;7.90;;
30723;SDS011;17473;52.286;20.930;2024-02-15T01:13:47;17.37;;;8.57;;
30723;SDS011;17473;52.286;20.930;2024-02-15T01:16:14;17.27;;;8.27;;
30723;SDS011;17473;52.286;20.930;2024-02-15T01:18:42;16.37;;;8.53;;
30723;SDS011;17473;52.286;20.930;2024-02-15T01:21:09;19.40;;;9.17;;
30723;SDS011;17473;52.286;20.930;2024-02-15T01:23:38;15.73;;;8.00;;
30723;SDS011;17473;52.286;20.930;2024-02-15T01:26:05;17.73;;;7.97;;
30723;SDS011;17473;52.286;20.930;2024-02-15T01:28:32;16.63;;;7.50;;
30723;SDS011;17473;52.286;20.930;2024-02-15T01:30:59;18.87;;;8.73;;
30723;SDS011;17473;52.286;20.930;2024-02-15T01:33:26;19.30;;;8.10;;
30723;SDS011;17473;52.286;20.930;2024-02-15T01:35:53;18.53;;;7.80;;
30723;SDS011;17473;52.286;20.930;2024-02-15T01:38:21;18.70;;;9.10;;
30723;SDS011;17473;52.286;20.930;2024-02-15T01:40:48;16.37;;;8.00;;
30723;SDS011;17473;52.286;20.930;2024-02-15T01:43:15;16.83;;;8.07;;
30723;SDS011;17473;52.286;20.930;2024-02-15T01:45:42;16.27;;;8.03;;
30723;SDS011;17473;52.286;20.930;2024-02-15T01:48:09;16.90;;;8.13;;
30723;SDS011;17473;52.286;20.930;2024-02-15T01:50:37;15.83;;;7.37;;
30723;SDS011;17473;52.286;20.930;2024-02-15T01:53:05;15.90;;;7.87;;
30723;SDS011;17473;52.286;20.930;2024-02-15T01:55:34;22.20;;;9.37;;
30723;SDS011;17473;52.286;20.930;2024-02-15T01:58:02;14.97;;;8.03;;
30723;SDS011;17473;52.286;20.930;2024-02-15T02:00:30;14.63;;;8.27;;
30723;SDS011;17473;52.286;20.930;2024-02-15T02:02:57;17.20;;;8.30;;
30723;SDS011;17473;52.286;20.930;2024-02-15T02:05:29;16.53;;;8.83;;
30723;SDS011;17473;52.286;20.930;2024-02-15T02:07:58;17.00;;;7.70;;
30723;SDS011;17473;52.286;20.930;2024-02-15T02:10:28;16.20;;;7.73;;
30723;SDS011;17473;52.286;20.930;2024-02-15T02:13:00;22.57;;;8.20;;
30723;SDS011;17473;52.286;20.930;2024-02-15T02:15:33;25.80;;;8.87;;
30723;SDS011;17473;52.286;20.930;2024-02-15T02:18:00;17.70;;;8.50;;
30723;SDS011;17473;52.286;20.930;2024-02-15T02:20:27;16.37;;;7.93;;
30723;SDS011;17473;52.286;20.930;2024-02-15T02:22:58;15.77;;;8.30;;
30723;SDS011;17473;52.286;20.930;2024-02-15T02:25:36;15.57;;;7.93;;
30723;SDS011;17473;52.286;20.930;2024-02-15T02:28:03;21.17;;;8.83;;
30723;SDS011;17473;52.286;20.930;2024-02-15T02:30:30;21.03;;;8.33;;
30723;SDS011;17473;52.286;20.930;2024-02-15T02:32:57;18.57;;;8.37;;
30723;SDS011;17473;52.286;20.930;2024-02-15T02:35:25;17.50;;;8.43;;
30723;SDS011;17473;52.286;20.930;2024-02-15T02:37:53;15.13;;;8.10;;
30723;SDS011;17473;52.286;20.930;2024-02-15T02:40:20;15.73;;;8.47;;
30723;SDS011;17473;52.286;20.930;2024-02-15T02:42:52;16.77;;;8.00;;
30723;SDS011;17473;52.286;20.930;2024-02-15T02:45:19;19.93;;;8.20;;
30723;SDS011;17473;52.286;20.930;2024-02-15T02:47:49;19.70;;;8.90;;
30723;SDS011;17473;52.286;20.930;2024-02-15T02:50:22;17.27;;;7.63;;
30723;SDS011;17473;52.286;20.930;2024-02-15T02:52:50;18.97;;;8.60;;
30723;SDS011;17473;52.286;20.930;2024-02-15T02:55:17;17.13;;;8.00;;
30723;SDS011;17473;52.286;20.930;2024-02-15T02:57:44;15.43;;;8.50;;
30723;SDS011;17473;52.286;20.930;2024-02-15T03:00:12;15.67;;;7.50;;
30723;SDS011;17473;52.286;20.930;2024-02-15T03:02:42;17.93;;;8.70;;
30723;SDS011;17473;52.286;20.930;2024-02-15T03:05:10;19.37;;;9.60;;
30723;SDS011;17473;52.286;20.930;2024-02-15T03:07:40;16.47;;;8.30;;
30723;SDS011;17473;52.286;20.930;2024-02-15T03:10:07;14.00;;;8.07;;
30723;SDS011;17473;52.286;20.930;2024-02-15T03:12:36;19.73;;;9.73;;
30723;SDS011;17473;52.286;20.930;2024-02-15T03:15:04;18.50;;;8.93;;
30723;SDS011;17473;52.286;20.930;2024-02-15T03:17:34;17.60;;;8.80;;
30723;SDS011;17473;52.286;20.930;2024-02-15T03:20:01;20.20;;;9.63;;
30723;SDS011;17473;52.286;20.930;2024-02-15T03:22:37;16.10;;;9.20;;
30723;SDS011;17473;52.286;20.930;2024-02-15T03:25:07;18.20;;;8.60;;
30723;SDS011;17473;52.286;20.930;2024-02-15T03:27:35;15.37;;;8.77;;
30723;SDS011;17473;52.286;20.930;2024-02-15T03:30:04;19.83;;;9.10;;
30723;SDS011;17473;52.286;20.930;2024-02-15T03:32:31;19.00;;;9.27;;
30723;SDS011;17473;52.286;20.930;2024-02-15T03:34:59;16.93;;;9.17;;
30723;SDS011;17473;52.286;20.930;2024-02-15T03:37:27;20.57;;;9.40;;
30723;SDS011;17473;52.286;20.930;2024-02-15T03:39:55;17.63;;;8.97;;
30723;SDS011;17473;52.286;20.930;2024-02-15T03:42:21;20.93;;;9.37;;
30723;SDS011;17473;52.286;20.930;2024-02-15T03:44:48;20.80;;;8.57;;
30723;SDS011;17473;52.286;20.930;2024-02-15T03:47:16;17.97;;;8.47;;
30723;SDS011;17473;52.286;20.930;2024-02-15T03:49:43;15.43;;;7.67;;
30723;SDS011;17473;52.286;20.930;2024-02-15T03:52:10;19.63;;;8.37;;
30723;SDS011;17473;52.286;20.930;2024-02-15T03:54:37;18.33;;;8.90;;
30723;SDS011;17473;52.286;20.930;2024-02-15T03:57:04;20.20;;;9.07;;
30723;SDS011;17473;52.286;20.930;2024-02-15T03:59:33;18.23;;;9.07;;
30723;SDS011;17473;52.286;20.930;2024-02-15T04:02:01;18.80;;;9.43;;
30723;SDS011;17473;52.286;20.930;2024-02-15T04:04:29;19.17;;;8.60;;
30723;SDS011;17473;52.286;20.930;2024-02-15T04:06:57;19.77;;;9.33;;
30723;SDS011;17473;52.286;20.930;2024-02-15T04:09:24;17.73;;;8.97;;
30723;SDS011;17473;52.286;20.930;2024-02-15T04:11:51;19.87;;;9.23;;
30723;SDS011;17473;52.286;20.930;2024-02-15T04:14:20;18.27;;;9.43;;
30723;SDS011;17473;52.286;20.930;2024-02-15T04:16:47;22.10;;;9.30;;
30723;SDS011;17473;52.286;20.930;2024-02-15T04:19:14;22.47;;;8.70;;
30723;SDS011;17473;52.286;20.930;2024-02-15T04:21:41;24.23;;;9.50;;
30723;SDS011;17473;52.286;20.930;2024-02-15T04:24:10;17.73;;;8.00;;
30723;SDS011;17473;52.286;20.930;2024-02-15T04:26:37;20.03;;;8.97;;
30723;SDS011;17473;52.286;20.930;2024-02-15T04:29:05;23.53;;;9.87;;
30723;SDS011;17473;52.286;20.930;2024-02-15T04:31:34;19.93;;;9.37;;
30723;SDS011;17473;52.286;20.930;2024-02-15T04:34:05;17.47;;;7.90;;
30723;SDS011;17473;52.286;20.930;2024-02-15T04:36:33;22.23;;;8.90;;
30723;SDS011;17473;52.286;20.930;2024-02-15T04:39:00;17.27;;;9.67;;
30723;SDS011;17473;52.286;20.930;2024-02-15T04:41:29;19.57;;;9.93;;
30723;SDS011;17473;52.286;20.930;2024-02-15T04:43:56;20.20;;;9.23;;
30723;SDS011;17473;52.286;20.930;2024-02-15T04:46:23;20.50;;;9.50;;
30723;SDS011;17473;52.286;20.930;2024-02-15T04:48:51;20.37;;;9.40;;
30723;SDS011;17473;52.286;20.930;2024-02-15T04:51:18;20.47;;;9.23;;
30723;SDS011;17473;52.286;20.930;2024-02-15T04:53:46;23.57;;;9.30;;
30723;SDS011;17473;52.286;20.930;2024-02-15T04:56:14;17.53;;;9.43;;
30723;SDS011;17473;52.286;20.930;2024-02-15T04:58:42;16.20;;;8.67;;
30723;SDS011;17473;52.286;20.930;2024-02-15T05:01:15;18.33;;;9.10;;
30723;SDS011;17473;52.286;20.930;2024-02-15T05:03:43;15.80;;;8.30;;
30723;SDS011;17473;52.286;20.930;2024-02-15T05:06:10;16.87;;;8.37;;
30723;SDS011;17473;52.286;20.930;2024-02-15T05:08:39;20.73;;;9.23;;
30723;SDS011;17473;52.286;20.930;2024-02-15T05:11:10;20.03;;;8.97;;
30723;SDS011;17473;52.286;20.930;2024-02-15T05:13:41;18.27;;;8.93;;
30723;SDS011;17473;52.286;20.930;2024-02-15T05:16:08;17.63;;;9.30;;
30723;SDS011;17473;52.286;20.930;2024-02-15T05:18:35;16.77;;;9.37;;
30723;SDS011;17473;52.286;20.930;2024-02-15T05:21:03;19.07;;;9.17;;
30723;SDS011;17473;52.286;20.930;2024-02-15T05:23:31;18.53;;;8.77;;
30723;SDS011;17473;52.286;20.930;2024-02-15T05:25:58;17.10;;;8.47;;
30723;SDS011;17473;52.286;20.930;2024-02-15T05:28:25;19.10;;;9.40;;
30723;SDS011;17473;52.286;20.930;2024-02-15T05:31:08;23.97;;;9.93;;
30723;SDS011;17473;52.286;20.930;2024-02-15T05:33:39;21.27;;;9.60;;
30723;SDS011;17473;52.286;20.930;2024-02-15T05:36:11;19.43;;;8.50;;
30723;SDS011;17473;52.286;20.930;2024-02-15T05:38:42;20.00;;;9.60;;
30723;SDS011;17473;52.286;20.930;2024-02-15T05:41:11;20.03;;;10.20;;
30723;SDS011;17473;52.286;20.930;2024-02-15T05:43:39;19.53;;;9.77;;
30723;SDS011;17473;52.286;20.930;2024-02-15T05:46:08;20.30;;;10.23;;
30723;SDS011;17473;52.286;20.930;2024-02-15T05:48:36;21.23;;;9.73;;
30723;SDS011;17473;52.286;20.930;2024-02-15T05:51:04;27.97;;;9.63;;
30723;SDS011;17473;52.286;20.930;2024-02-15T05:53:32;20.53;;;10.70;;
30723;SDS011;17473;52.286;20.930;2024-02-15T05:56:02;27.73;;;11.73;;
30723;SDS011;17473;52.286;20.930;2024-02-15T05:58:31;26.30;;;11.40;;
30723;SDS011;17473;52.286;20.930;2024-02-15T06:00:58;23.33;;;10.67;;
30723;SDS011;17473;52.286;20.930;2024-02-15T06:03:29;17.50;;;9.83;;
30723;SDS011;17473;52.286;20.930;2024-02-15T06:05:58;18.93;;;9.67;;
30723;SDS011;17473;52.286;20.930;2024-02-15T06:08:26;19.30;;;10.80;;
30723;SDS011;17473;52.286;20.930;2024-02-15T06:10:53;24.50;;;11.77;;
30723;SDS011;17473;52.286;20.930;2024-02-15T06:13:20;22.83;;;10.77;;
30723;SDS011;17473;52.286;20.930;2024-02-15T06:15:48;20.60;;;10.77;;
30723;SDS011;17473;52.286;20.930;2024-02-15T06:18:25;22.37;;;11.57;;
30723;SDS011;17473;52.286;20.930;2024-02-15T06:20:55;23.27;;;12.00;;
30723;SDS011;17473;52.286;20.930;2024-02-15T06:23:26;19.33;;;11.93;;
30723;SDS011;17473;52.286;20.930;2024-02-15T06:25:54;20.27;;;11.57;;
30723;SDS011;17473;52.286;20.930;2024-02-15T06:28:25;25.97;;;12.63;;
30723;SDS011;17473;52.286;20.930;2024-02-15T06:31:10;27.70;;;12.87;;
30723;SDS011;17473;52.286;20.930;2024-02-15T06:33:56;28.60;;;13.60;;
30723;SDS011;17473;52.286;20.930;2024-02-15T06:36:49;25.60;;;13.30;;
30723;SDS011;17473;52.286;20.930;2024-02-15T06:39:37;29.57;;;14.20;;
30723;SDS011;17473;52.286;20.930;2024-02-15T06:42:05;28.43;;;13.87;;
30723;SDS011;17473;52.286;20.930;2024-02-15T06:44:33;29.13;;;13.60;;
30723;SDS011;17473;52.286;20.930;2024-02-15T06:47:00;27.63;;;14.03;;
30723;SDS011;17473;52.286;20.930;2024-02-15T06:49:27;27.80;;;14.90;;
30723;SDS011;17473;52.286;20.930;2024-02-15T06:51:54;27.67;;;14.80;;
30723;SDS011;17473;52.286;20.930;2024-02-15T06:54:22;31.10;;;15.30;;
30723;SDS011;17473;52.286;20.930;2024-02-15T06:56:50;28.93;;;14.97;;
30723;SDS011;17473;52.286;20.930;2024-02-15T06:59:19;33.90;;;16.50;;
30723;SDS011;17473;52.286;20.930;2024-02-15T07:01:51;34.23;;;17.13;;
30723;SDS011;17473;52.286;20.930;2024-02-15T07:04:18;36.17;;;15.90;;
30723;SDS011;17473;52.286;20.930;2024-02-15T07:06:47;32.57;;;15.17;;
30723;SDS011;17473;52.286;20.930;2024-02-15T07:09:16;39.00;;;17.87;;
30723;SDS011;17473;52.286;20.930;2024-02-15T07:11:45;36.13;;;16.50;;
30723;SDS011;17473;52.286;20.930;2024-02-15T07:14:16;32.97;;;16.17;;
30723;SDS011;17473;52.286;20.930;2024-02-15T07:16:44;31.33;;;16.80;;
30723;SDS011;17473;52.286;20.930;2024-02-15T07:19:15;30.47;;;17.07;;
30723;SDS011;17473;52.286;20.930;2024-02-15T07:21:43;26.97;;;16.30;;
30723;SDS011;17473;52.286;20.930;2024-02-15T07:24:10;34.70;;;17.67;;
30723;SDS011;17473;52.286;20.930;2024-02-15T07:26:37;38.07;;;18.53;;
30723;SDS011;17473;52.286;20.930;2024-02-15T07:29:04;32.90;;;17.30;;
30723;SDS011;17473;52.286;20.930;2024-02-15T07:31:35;29.23;;;16.57;;
30723;SDS011;17473;52.286;20.930;2024-02-15T07:34:02;37.33;;;17.43;;
30723;SDS011;17473;52.286;20.930;2024-02-15T07:36:33;32.13;;;16.80;;
30723;SDS011;17473;52.286;20.930;2024-02-15T07:39:00;34.90;;;17.93;;
30723;SDS011;17473;52.286;20.930;2024-02-15T07:41:28;28.77;;;17.27;;
30723;SDS011;17473;52.286;20.930;2024-02-15T07:43:57;33.87;;;18.60;;
30723;SDS011;17473;52.286;20.930;2024-02-15T07:46:25;35.37;;;19.63;;
30723;SDS011;17473;52.286;20.930;2024-02-15T07:48:51;36.40;;;18.00;;
30723;SDS011;17473;52.286;20.930;2024-02-15T07:51:19;38.07;;;19.50;;
30723;SDS011;17473;52.286;20.930;2024-02-15T07:53:48;35.23;;;19.03;;
30723;SDS011;17473;52.286;20.930;2024-02-15T07:56:16;38.27;;;19.50;;
30723;SDS011;17473;52.286;20.930;2024-02-15T07:58:44;36.77;;;19.20;;
30723;SDS011;17473;52.286;20.930;2024-02-15T08:01:18;36.83;;;17.57;;
30723;SDS011;17473;52.286;20.930;2024-02-15T08:03:51;31.10;;;17.73;;
30723;SDS011;17473;52.286;20.930;2024-02-15T08:06:21;32.17;;;19.30;;
30723;SDS011;17473;52.286;20.930;2024-02-15T08:08:52;35.30;;;19.03;;
30723;SDS011;17473;52.286;20.930;2024-02-15T08:11:19;35.57;;;19.30;;
30723;SDS011;17473;52.286;20.930;2024-02-15T08:13:47;34.07;;;19.57;;
30723;SDS011;17473;52.286;20.930;2024-02-15T08:16:17;36.37;;;19.67;;
30723;SDS011;17473;52.286;20.930;2024-02-15T08:18:45;40.90;;;20.53;;
30723;SDS011;17473;52.286;20.930;2024-02-15T08:21:13;31.93;;;18.80;;
30723;SDS011;17473;52.286;20.930;2024-02-15T08:23:41;35.83;;;19.53;;
30723;SDS011;17473;52.286;20.930;2024-02-15T08:26:08;36.03;;;20.13;;
30723;SDS011;17473;52.286;20.930;2024-02-15T08:28:37;31.50;;;19.50;;
30723;SDS011;17473;52.286;20.930;2024-02-15T08:31:05;35.07;;;20.10;;
30723;SDS011;17473;52.286;20.930;2024-02-15T08:33:33;39.97;;;20.83;;
30723;SDS011;17473;52.286;20.930;2024-02-15T08:36:01;42.90;;;19.63;;
30723;SDS011;17473;52.286;20.930;2024-02-15T08:38:28;35.83;;;19.97;;
30723;SDS011;17473;52.286;20.930;2024-02-15T08:40:55;40.83;;;20.67;;
30723;SDS011;17473;52.286;20.930;2024-02-15T08:43:22;38.23;;;20.77;;
30723;SDS011;17473;52.286;20.930;2024-02-15T08:45:49;39.40;;;20.63;;
30723;SDS011;17473;52.286;20.930;2024-02-15T08:48:17;39.57;;;21.30;;
30723;SDS011;17473;52.286;20.930;2024-02-15T08:50:44;36.10;;;20.03;;
30723;SDS011;17473;52.286;20.930;2024-02-15T08:53:12;37.93;;;20.87;;
30723;SDS011;17473;52.286;20.930;2024-02-15T08:55:41;40.63;;;21.97;;
30723;SDS011;17473;52.286;20.930;2024-02-15T08:58:08;32.50;;;19.77;;
30723;SDS011;17473;52.286;20.930;2024-02-15T09:00:36;48.03;;;21.63;;
30723;SDS011;17473;52.286;20.930;2024-02-15T09:03:07;34.63;;;21.27;;
30723;SDS011;17473;52.286;20.930;2024-02-15T09:05:35;38.33;;;21.87;;
30723;SDS011;17473;52.286;20.930;2024-02-15T09:08:02;39.23;;;22.00;;
30723;SDS011;17473;52.286;20.930;2024-02-15T09:10:31;40.33;;;22.03;;
30723;SDS011;17473;52.286;20.930;2024-02-15T09:12:57;40.53;;;22.77;;
30723;SDS011;17473;52.286;20.930;2024-02-15T09:15:24;37.87;;;20.60;;
30723;SDS011;17473;52.286;20.930;2024-02-15T09:17:51;36.83;;;22.53;;
30723;SDS011;17473;52.286;20.930;2024-02-15T09:20:21;38.93;;;22.77;;
30723;SDS011;17473;52.286;20.930;2024-02-15T09:22:50;35.47;;;22.10;;
30723;SDS011;17473;52.286;20.930;2024-02-15T09:25:18;39.13;;;22.67;;
30723;SDS011;17473;52.286;20.930;2024-02-15T09:27:45;43.37;;;23.23;;
30723;SDS011;17473;52.286;20.930;2024-02-15T09:30:12;35.60;;;22.53;;
30723;SDS011;17473;52.286;20.930;2024-02-15T09:32:40;44.33;;;23.43;;
30723;SDS011;17473;52.286;20.930;2024-02-15T09:35:08;42.33;;;24.60;;
30723;SDS011;17473;52.286;20.930;2024-02-15T09:37:36;44.03;;;22.97;;
30723;SDS011;17473;52.286;20.930;2024-02-15T09:40:08;40.93;;;23.17;;
30723;SDS011;17473;52.286;20.930;2024-02-15T09:42:37;41.27;;;24.57;;
30723;SDS011;17473;52.286;20.930;2024-02-15T09:45:06;38.33;;;23.53;;
30723;SDS011;17473;52.286;20.930;2024-02-15T09:47:37;47.13;;;22.97;;
30723;SDS011;17473;52.286;20.930;2024-02-15T09:52:44;42.70;;;23.53;;
30723;SDS011;17473;52.286;20.930;2024-02-15T09:55:18;38.43;;;23.63;;
30723;SDS011;17473;52.286;20.930;2024-02-15T09:57:49;43.23;;;24.67;;
30723;SDS011;17473;52.286;20.930;2024-02-15T10:00:17;42.73;;;24.43;;
30723;SDS011;17473;52.286;20.930;2024-02-15T10:02:46;38.60;;;23.47;;
30723;SDS011;17473;52.286;20.930;2024-02-15T10:05:14;38.30;;;22.33;;
30723;SDS011;17473;52.286;20.930;2024-02-15T10:07:42;46.70;;;24.13;;
30723;SDS011;17473;52.286;20.930;2024-02-15T10:10:16;47.80;;;24.57;;
30723;SDS011;17473;52.286;20.930;2024-02-15T10:12:49;38.70;;;23.37;;
30723;SDS011;17473;52.286;20.930;2024-02-15T10:15:35;43.37;;;23.97;;
30723;SDS011;17473;52.286;20.930;2024-02-15T10:18:05;38.93;;;22.50;;
30723;SDS011;17473;52.286;20.930;2024-02-15T10:20:42;41.67;;;24.40;;
30723;SDS011;17473;52.286;20.930;2024-02-15T10:23:15;39.07;;;22.47;;
30723;SDS011;17473;52.286;20.930;2024-02-15T10:25:45;36.20;;;22.00;;
30723;SDS011;17473;52.286;20.930;2024-02-15T10:28:12;42.13;;;22.80;;
30723;SDS011;17473;52.286;20.930;2024-02-15T10:30:42;42.00;;;23.57;;
30723;SDS011;17473;52.286;20.930;2024-02-15T10:33:45;43.33;;;22.73;;
30723;SDS011;17473;52.286;20.930;2024-02-15T10:38:37;39.97;;;23.80;;
30723;SDS011;17473;52.286;20.930;2024-02-15T10:41:06;39.97;;;24.23;;
30723;SDS011;17473;52.286;20.930;2024-02-15T10:43:34;37.57;;;23.00;;
30723;SDS011;17473;52.286;20.930;2024-02-15T10:46:03;40.73;;;23.13;;
30723;SDS011;17473;52.286;20.930;2024-02-15T10:48:31;39.73;;;22.50;;
30723;SDS011;17473;52.286;20.930;2024-02-15T10:51:01;40.53;;;22.43;;
30723;SDS011;17473;52.286;20.930;2024-02-15T10:53:30;40.37;;;23.87;;
30723;SDS011;17473;52.286;20.930;2024-02-15T10:56:04;45.63;;;24.37;;
30723;SDS011;17473;52.286;20.930;2024-02-15T10:58:39;42.53;;;23.97;;
30723;SDS011;17473;52.286;20.930;2024-02-15T11:01:15;39.03;;;22.93;;
30723;SDS011;17473;52.286;20.930;2024-02-15T11:03:48;36.73;;;23.33;;
30723;SDS011;17473;52.286;20.930;2024-02-15T11:06:20;50.50;;;26.03;;
30723;SDS011;17473;52.286;20.930;2024-02-15T11:08:48;41.80;;;24.23;;
30723;SDS011;17473;52.286;20.930;2024-02-15T11:11:15;47.67;;;25.50;;
30723;SDS011;17473;52.286;20.930;2024-02-15T11:13:42;42.67;;;25.20;;
30723;SDS011;17473;52.286;20.930;2024-02-15T11:16:09;47.93;;;25.23;;
30723;SDS011;17473;52.286;20.930;2024-02-15T11:18:46;43.30;;;25.60;;
30723;SDS011;17473;52.286;20.930;2024-02-15T11:24:30;42.23;;;24.93;;
30723;SDS011;17473;52.286;20.930;2024-02-15T11:27:05;39.33;;;23.80;;
30723;SDS011;17473;52.286;20.930;2024-02-15T11:29:53;38.87;;;24.53;;
30723;SDS011;17473;52.286;20.930;2024-02-15T11:32:45;42.13;;;25.23;;
30723;SDS011;17473;52.286;20.930;2024-02-15T11:37:51;42.77;;;24.50;;
30723;SDS011;17473;52.286;20.930;2024-02-15T11:43:08;44.37;;;26.17;;
30723;SDS011;17473;52.286;20.930;2024-02-15T11:45:36;40.03;;;23.17;;
30723;SDS011;17473;52.286;20.930;2024-02-15T11:48:11;42.83;;;24.53;;
30723;SDS011;17473;52.286;20.930;2024-02-15T11:50:40;43.70;;;25.30;;
30723;SDS011;17473;52.286;20.930;2024-02-15T11:53:08;43.63;;;25.70;;
30723;SDS011;17473;52.286;20.930;2024-02-15T11:55:38;46.47;;;25.13;;
30723;SDS011;17473;52.286;20.930;2024-02-15T11:58:07;44.33;;;25.87;;
30723;SDS011;17473;52.286;20.930;2024-02-15T12:00:35;45.60;;;24.80;;
30723;SDS011;17473;52.286;20.930;2024-02-15T12:03:22;45.03;;;26.77;;
30723;SDS011;17473;52.286;20.930;2024-02-15T12:06:25;39.97;;;24.37;;
30723;SDS011;17473;52.286;20.930;2024-02-15T12:09:13;44.73;;;27.70;;
30723;SDS011;17473;52.286;20.930;2024-02-15T12:12:04;44.57;;;25.80;;
30723;SDS011;17473;52.286;20.930;2024-02-15T12:14:50;46.90;;;27.47;;
30723;SDS011;17473;52.286;20.930;2024-02-15T12:17:42;41.90;;;25.00;;
30723;SDS011;17473;52.286;20.930;2024-02-15T12:20:28;48.87;;;25.93;;
30723;SDS011;17473;52.286;20.930;2024-02-15T12:22:55;42.43;;;25.37;;
30723;SDS011;17473;52.286;20.930;2024-02-15T12:25:22;44.70;;;26.23;;
30723;SDS011;17473;52.286;20.930;2024-02-15T12:27:54;44.60;;;25.23;;
30723;SDS011;17473;52.286;20.930;2024-02-15T12:30:22;41.77;;;26.40;;
30723;SDS011;17473;52.286;20.930;2024-02-15T12:32:52;45.67;;;26.57;;
30723;SDS011;17473;52.286;20.930;2024-02-15T12:35:20;43.33;;;27.67;;
30723;SDS011;17473;52.286;20.930;2024-02-15T12:40:29;44.87;;;27.13;;
30723;SDS011;17473;52.286;20.930;2024-02-15T12:43:05;49.60;;;27.10;;
30723;SDS011;17473;52.286;20.930;2024-02-15T12:45:38;46.53;;;26.20;;
30723;SDS011;17473;52.286;20.930;2024-02-15T12:48:06;45.73;;;26.77;;
30723;SDS011;17473;52.286;20.930;2024-02-15T12:50:34;45.13;;;26.83;;
30723;SDS011;17473;52.286;20.930;2024-02-15T12:53:02;39.67;;;25.33;;
30723;SDS011;17473;52.286;20.930;2024-02-15T12:55:30;40.00;;;25.73;;
30723;SDS011;17473;52.286;20.930;2024-02-15T12:58:02;45.90;;;26.57;;
30723;SDS011;17473;52.286;20.930;2024-02-15T13:00:31;47.73;;;26.73;;
30723;SDS011;17473;52.286;20.930;2024-02-15T13:03:01;43.03;;;26.23;;
30723;SDS011;17473;52.286;20.930;2024-02-15T13:05:35;52.13;;;27.47;;
30723;SDS011;17473;52.286;20.930;2024-02-15T13:08:06;43.10;;;26.37;;
30723;SDS011;17473;52.286;20.930;2024-02-15T13:10:37;43.90;;;26.13;;
30723;SDS011;17473;52.286;20.930;2024-02-15T13:13:06;41.50;;;27.27;;
30723;SDS011;17473;52.286;20.930;2024-02-15T13:15:36;43.37;;;25.43;;
30723;SDS011;17473;52.286;20.930;2024-02-15T13:18:03;44.13;;;25.50;;
30723;SDS011;17473;52.286;20.930;2024-02-15T13:20:32;48.10;;;26.90;;
30723;SDS011;17473;52.286;20.930;2024-02-15T13:23:01;43.33;;;25.27;;
30723;SDS011;17473;52.286;20.930;2024-02-15T13:25:35;40.57;;;25.50;;
30723;SDS011;17473;52.286;20.930;2024-02-15T13:28:03;50.00;;;26.87;;
30723;SDS011;17473;52.286;20.930;2024-02-15T13:30:31;45.20;;;25.87;;
30723;SDS011;17473;52.286;20.930;2024-02-15T13:32:58;45.13;;;25.30;;
30723;SDS011;17473;52.286;20.930;2024-02-15T13:35:27;42.25;;;26.60;;
30723;SDS011;17473;52.286;20.930;2024-02-15T13:37:55;44.20;;;24.40;;
30723;SDS011;17473;52.286;20.930;2024-02-15T13:40:26;42.17;;;25.23;;
30723;SDS011;17473;52.286;20.930;2024-02-15T13:42:55;40.07;;;24.20;;
30723;SDS011;17473;52.286;20.930;2024-02-15T13:45:28;40.03;;;26.03;;
30723;SDS011;17473;52.286;20.930;2024-02-15T13:47:59;41.73;;;25.20;;
30723;SDS011;17473;52.286;20.930;2024-02-15T13:50:29;41.13;;;23.43;;
30723;SDS011;17473;52.286;20.930;2024-02-15T13:52:57;42.07;;;24.00;;
30723;SDS011;17473;52.286;20.930;2024-02-15T13:55:24;46.13;;;25.33;;
30723;SDS011;17473;52.286;20.930;2024-02-15T13:57:52;38.73;;;23.73;;
30723;SDS011;17473;52.286;20.930;2024-02-15T14:00:19;38.90;;;23.33;;
30723;SDS011;17473;52.286;20.930;2024-02-15T14:02:50;38.47;;;23.13;;
30723;SDS011;17473;52.286;20.930;2024-02-15T14:05:17;41.33;;;24.07;;
30723;SDS011;17473;52.286;20.930;2024-02-15T14:07:50;37.53;;;22.90;;
30723;SDS011;17473;52.286;20.930;2024-02-15T14:10:23;38.33;;;22.87;;
30723;SDS011;17473;52.286;20.930;2024-02-15T14:12:51;42.47;;;23.33;;
30723;SDS011;17473;52.286;20.930;2024-02-15T14:15:19;41.57;;;24.07;;
30723;SDS011;17473;52.286;20.930;2024-02-15T14:17:46;42.13;;;23.50;;
30723;SDS011;17473;52.286;20.930;2024-02-15T14:20:13;38.47;;;22.33;;
30723;SDS011;17473;52.286;20.930;2024-02-15T14:22:44;41.17;;;23.35;;
30723;SDS011;17473;52.286;20.930;2024-02-15T14:25:16;41.27;;;22.87;;
30723;SDS011;17473;52.286;20.930;2024-02-15T14:27:43;35.33;;;21.83;;
30723;SDS011;17473;52.286;20.930;2024-02-15T14:30:10;39.90;;;22.33;;
30723;SDS011;17473;52.286;20.930;2024-02-15T14:32:55;38.83;;;23.03;;
30723;SDS011;17473;52.286;20.930;2024-02-15T14:35:38;37.67;;;22.13;;
30723;SDS011;17473;52.286;20.930;2024-02-15T14:38:06;41.60;;;23.07;;
30723;SDS011;17473;52.286;20.930;2024-02-15T14:43:09;41.47;;;22.83;;
30723;SDS011;17473;52.286;20.930;2024-02-15T14:45:44;39.17;;;21.20;;
30723;SDS011;17473;52.286;20.930;2024-02-15T14:48:11;41.10;;;21.63;;